sensor_id;sensor_type;location;lat;lon;timestamp;temperature;humidity
34249;DHT22;20508;50.834;3.160;2022-09-12T00:01:21;24.20;52.40
34249;DHT22;20508;50.834;3.160;2022-09-12T00:03:51;24.20;51.70
34249;DHT22;20508;50.834;3.160;2022-09-12T00:06:39;24.20;51.80
34249;DHT22;20508;50.834;3.160;2022-09-12T00:09:11;24.20;51.70
34249;DHT22;20508;50.834;3.160;2022-09-12T00:11:48;24.10;51.90
34249;DHT22;20508;50.834;3.160;2022-09-12T00:14:18;24.10;52.10
34249;DHT22;20508;50.834;3.160;2022-09-12T00:16:51;24.10;52.00
34249;DHT22;20508;50.834;3.160;2022-09-12T00:19:20;24.10;52.10
34249;DHT22;20508;50.834;3.160;2022-09-12T00:21:46;24.10;52.10
34249;DHT22;20508;50.834;3.160;2022-09-12T00:24:12;24.00;52.10
34249;DHT22;20508;50.834;3.160;2022-09-12T00:26:40;24.00;52.90
34249;DHT22;20508;50.834;3.160;2022-09-12T00:29:07;24.00;52.20
34249;DHT22;20508;50.834;3.160;2022-09-12T00:31:33;24.00;52.20
34249;DHT22;20508;50.834;3.160;2022-09-12T00:34:00;24.00;52.20
34249;DHT22;20508;50.834;3.160;2022-09-12T00:36:32;24.00;52.10
34249;DHT22;20508;50.834;3.160;2022-09-12T00:39:02;24.10;52.10
34249;DHT22;20508;50.834;3.160;2022-09-12T00:41:33;24.00;51.90
34249;DHT22;20508;50.834;3.160;2022-09-12T00:44:02;24.10;51.90
34249;DHT22;20508;50.834;3.160;2022-09-12T00:49:28;24.10;51.90
34249;DHT22;20508;50.834;3.160;2022-09-12T00:54:40;24.00;51.80
34249;DHT22;20508;50.834;3.160;2022-09-12T00:57:09;23.90;51.90
34249;DHT22;20508;50.834;3.160;2022-09-12T00:59:47;23.90;52.20
34249;DHT22;20508;50.834;3.160;2022-09-12T01:02:17;23.90;52.00
34249;DHT22;20508;50.834;3.160;2022-09-12T01:04:49;23.90;52.20
34249;DHT22;20508;50.834;3.160;2022-09-12T01:07:16;23.90;52.20
34249;DHT22;20508;50.834;3.160;2022-09-12T01:09:45;23.90;52.10
34249;DHT22;20508;50.834;3.160;2022-09-12T01:12:13;23.90;52.00
34249;DHT22;20508;50.834;3.160;2022-09-12T01:14:46;23.90;52.00
34249;DHT22;20508;50.834;3.160;2022-09-12T01:17:13;23.90;51.90
34249;DHT22;20508;50.834;3.160;2022-09-12T01:30:54;24.00;51.70
34249;DHT22;20508;50.834;3.160;2022-09-12T01:39:24;23.90;51.80
34249;DHT22;20508;50.834;3.160;2022-09-12T01:45:25;24.00;51.70
34249;DHT22;20508;50.834;3.160;2022-09-12T01:48:12;23.90;51.90
34249;DHT22;20508;50.834;3.160;2022-09-12T01:51:01;24.00;51.60
34249;DHT22;20508;50.834;3.160;2022-09-12T01:53:34;24.10;51.60
34249;DHT22;20508;50.834;3.160;2022-09-12T01:56:23;24.00;51.70
34249;DHT22;20508;50.834;3.160;2022-09-12T01:59:17;24.10;51.50
34249;DHT22;20508;50.834;3.160;2022-09-12T02:05:09;24.20;51.40
34249;DHT22;20508;50.834;3.160;2022-09-12T02:07:44;24.10;51.30
34249;DHT22;20508;50.834;3.160;2022-09-12T02:10:19;24.10;51.50
34249;DHT22;20508;50.834;3.160;2022-09-12T02:12:56;24.10;51.50
34249;DHT22;20508;50.834;3.160;2022-09-12T02:15:39;24.10;51.50
34249;DHT22;20508;50.834;3.160;2022-09-12T02:18:13;24.00;51.60
34249;DHT22;20508;50.834;3.160;2022-09-12T02:20:51;24.00;51.70
34249;DHT22;20508;50.834;3.160;2022-09-12T02:23:29;24.00;51.80
34249;DHT22;20508;50.834;3.160;2022-09-12T02:26:04;23.90;51.80
34249;DHT22;20508;50.834;3.160;2022-09-12T02:28:40;23.90;51.80
34249;DHT22;20508;50.834;3.160;2022-09-12T02:38:56;23.80;51.80
34249;DHT22;20508;50.834;3.160;2022-09-12T02:41:25;23.80;52.00
34249;DHT22;20508;50.834;3.160;2022-09-12T02:43:52;23.90;51.90
34249;DHT22;20508;50.834;3.160;2022-09-12T02:46:27;23.90;51.80
34249;DHT22;20508;50.834;3.160;2022-09-12T02:49:00;23.90;51.70
34249;DHT22;20508;50.834;3.160;2022-09-12T02:51:26;23.80;51.80
34249;DHT22;20508;50.834;3.160;2022-09-12T02:53:53;23.80;52.10
34249;DHT22;20508;50.834;3.160;2022-09-12T02:56:29;23.80;52.00
34249;DHT22;20508;50.834;3.160;2022-09-12T02:59:02;23.90;51.90
34249;DHT22;20508;50.834;3.160;2022-09-12T03:01:53;23.80;51.90
34249;DHT22;20508;50.834;3.160;2022-09-12T03:04:59;23.80;51.90
34249;DHT22;20508;50.834;3.160;2022-09-12T03:10:18;23.70;52.10
34249;DHT22;20508;50.834;3.160;2022-09-12T03:24:31;23.80;51.80
34249;DHT22;20508;50.834;3.160;2022-09-12T03:27:17;23.80;51.80
34249;DHT22;20508;50.834;3.160;2022-09-12T03:29:49;23.90;51.80
34249;DHT22;20508;50.834;3.160;2022-09-12T03:32:16;23.80;51.80
34249;DHT22;20508;50.834;3.160;2022-09-12T03:34:45;23.70;51.80
34249;DHT22;20508;50.834;3.160;2022-09-12T03:37:11;23.70;51.80
34249;DHT22;20508;50.834;3.160;2022-09-12T03:39:40;23.70;51.80
34249;DHT22;20508;50.834;3.160;2022-09-12T03:42:06;23.70;51.80
34249;DHT22;20508;50.834;3.160;2022-09-12T03:44:37;23.70;51.80
34249;DHT22;20508;50.834;3.160;2022-09-12T03:47:13;23.70;51.90
34249;DHT22;20508;50.834;3.160;2022-09-12T03:49:42;23.70;52.00
34249;DHT22;20508;50.834;3.160;2022-09-12T03:52:11;23.70;51.90
34249;DHT22;20508;50.834;3.160;2022-09-12T03:54:38;23.70;51.90
34249;DHT22;20508;50.834;3.160;2022-09-12T03:57:07;23.70;51.90
34249;DHT22;20508;50.834;3.160;2022-09-12T03:59:33;23.70;51.80
34249;DHT22;20508;50.834;3.160;2022-09-12T04:02:08;23.70;51.70
34249;DHT22;20508;50.834;3.160;2022-09-12T04:04:40;23.70;51.70
34249;DHT22;20508;50.834;3.160;2022-09-12T04:07:12;23.70;51.60
34249;DHT22;20508;50.834;3.160;2022-09-12T04:09:38;23.70;51.50
34249;DHT22;20508;50.834;3.160;2022-09-12T04:12:04;23.70;51.50
34249;DHT22;20508;50.834;3.160;2022-09-12T04:14:33;23.80;51.40
34249;DHT22;20508;50.834;3.160;2022-09-12T04:17:00;23.80;51.40
34249;DHT22;20508;50.834;3.160;2022-09-12T04:19:26;23.80;51.40
34249;DHT22;20508;50.834;3.160;2022-09-12T04:21:53;23.80;51.40
34249;DHT22;20508;50.834;3.160;2022-09-12T04:24:22;23.80;51.40
34249;DHT22;20508;50.834;3.160;2022-09-12T04:26:55;23.80;51.30
34249;DHT22;20508;50.834;3.160;2022-09-12T04:29:24;23.80;51.30
34249;DHT22;20508;50.834;3.160;2022-09-12T04:31:52;23.80;51.20
34249;DHT22;20508;50.834;3.160;2022-09-12T04:34:19;23.80;51.20
34249;DHT22;20508;50.834;3.160;2022-09-12T04:36:54;23.90;51.20
34249;DHT22;20508;50.834;3.160;2022-09-12T04:39:22;23.90;51.10
34249;DHT22;20508;50.834;3.160;2022-09-12T04:41:52;23.90;51.00
34249;DHT22;20508;50.834;3.160;2022-09-12T04:44:18;23.90;51.00
34249;DHT22;20508;50.834;3.160;2022-09-12T04:46:48;23.90;50.90
34249;DHT22;20508;50.834;3.160;2022-09-12T04:49:17;23.90;50.90
34249;DHT22;20508;50.834;3.160;2022-09-12T04:51:44;23.80;50.90
34249;DHT22;20508;50.834;3.160;2022-09-12T04:54:15;23.90;51.00
34249;DHT22;20508;50.834;3.160;2022-09-12T04:56:55;23.80;51.00
34249;DHT22;20508;50.834;3.160;2022-09-12T04:59:24;23.80;51.10
34249;DHT22;20508;50.834;3.160;2022-09-12T05:01:53;23.70;51.10
34249;DHT22;20508;50.834;3.160;2022-09-12T05:04:19;23.70;51.20
34249;DHT22;20508;50.834;3.160;2022-09-12T05:06:46;23.70;51.20
34249;DHT22;20508;50.834;3.160;2022-09-12T05:09:13;23.70;51.40
34249;DHT22;20508;50.834;3.160;2022-09-12T05:11:43;23.70;51.30
34249;DHT22;20508;50.834;3.160;2022-09-12T05:14:10;23.70;51.30
34249;DHT22;20508;50.834;3.160;2022-09-12T05:16:40;23.70;51.30
34249;DHT22;20508;50.834;3.160;2022-09-12T05:19:10;23.70;51.30
34249;DHT22;20508;50.834;3.160;2022-09-12T05:21:41;23.60;51.30
34249;DHT22;20508;50.834;3.160;2022-09-12T05:24:09;23.70;51.30
34249;DHT22;20508;50.834;3.160;2022-09-12T05:26:39;23.70;51.20
34249;DHT22;20508;50.834;3.160;2022-09-12T05:29:05;23.70;51.20
34249;DHT22;20508;50.834;3.160;2022-09-12T05:31:31;23.60;51.20
34249;DHT22;20508;50.834;3.160;2022-09-12T05:33:57;23.70;51.20
34249;DHT22;20508;50.834;3.160;2022-09-12T05:36:26;23.70;51.20
34249;DHT22;20508;50.834;3.160;2022-09-12T05:38:55;23.60;51.10
34249;DHT22;20508;50.834;3.160;2022-09-12T05:41:26;23.60;51.10
34249;DHT22;20508;50.834;3.160;2022-09-12T05:43:55;23.60;51.20
34249;DHT22;20508;50.834;3.160;2022-09-12T05:46:28;23.50;51.20
34249;DHT22;20508;50.834;3.160;2022-09-12T05:49:02;23.60;51.30
34249;DHT22;20508;50.834;3.160;2022-09-12T05:51:33;23.60;51.30
34249;DHT22;20508;50.834;3.160;2022-09-12T05:54:02;23.50;51.20
34249;DHT22;20508;50.834;3.160;2022-09-12T05:56:35;23.60;51.30
34249;DHT22;20508;50.834;3.160;2022-09-12T05:59:13;23.50;51.20
34249;DHT22;20508;50.834;3.160;2022-09-12T06:01:40;23.60;51.20
34249;DHT22;20508;50.834;3.160;2022-09-12T06:04:09;23.60;51.20
34249;DHT22;20508;50.834;3.160;2022-09-12T06:06:44;23.60;51.00
34249;DHT22;20508;50.834;3.160;2022-09-12T06:09:14;23.60;50.90
34249;DHT22;20508;50.834;3.160;2022-09-12T06:11:40;23.60;50.90
34249;DHT22;20508;50.834;3.160;2022-09-12T06:14:11;23.60;50.90
34249;DHT22;20508;50.834;3.160;2022-09-12T06:16:40;23.60;50.90
34249;DHT22;20508;50.834;3.160;2022-09-12T06:19:17;23.60;51.00
34249;DHT22;20508;50.834;3.160;2022-09-12T06:21:44;23.50;51.00
34249;DHT22;20508;50.834;3.160;2022-09-12T06:24:21;23.50;51.20
34249;DHT22;20508;50.834;3.160;2022-09-12T06:26:48;23.50;51.20
34249;DHT22;20508;50.834;3.160;2022-09-12T06:29:19;23.50;51.20
34249;DHT22;20508;50.834;3.160;2022-09-12T06:31:57;23.50;51.30
34249;DHT22;20508;50.834;3.160;2022-09-12T06:34:26;23.50;51.40
34249;DHT22;20508;50.834;3.160;2022-09-12T06:37:02;23.50;51.40
34249;DHT22;20508;50.834;3.160;2022-09-12T06:39:38;23.50;51.50
34249;DHT22;20508;50.834;3.160;2022-09-12T06:42:06;23.60;51.60
34249;DHT22;20508;50.834;3.160;2022-09-12T06:44:32;23.60;51.40
34249;DHT22;20508;50.834;3.160;2022-09-12T06:47:08;23.70;51.40
34249;DHT22;20508;50.834;3.160;2022-09-12T06:49:39;23.70;51.30
34249;DHT22;20508;50.834;3.160;2022-09-12T06:52:05;23.80;51.30
34249;DHT22;20508;50.834;3.160;2022-09-12T06:54:31;23.80;51.40
34249;DHT22;20508;50.834;3.160;2022-09-12T06:57:00;23.90;51.40
34249;DHT22;20508;50.834;3.160;2022-09-12T06:59:27;23.80;51.40
34249;DHT22;20508;50.834;3.160;2022-09-12T07:01:58;23.90;51.40
34249;DHT22;20508;50.834;3.160;2022-09-12T07:04:27;23.90;51.40
34249;DHT22;20508;50.834;3.160;2022-09-12T07:07:00;23.90;51.40
34249;DHT22;20508;50.834;3.160;2022-09-12T07:09:26;23.90;51.40
34249;DHT22;20508;50.834;3.160;2022-09-12T07:11:55;24.00;51.40
34249;DHT22;20508;50.834;3.160;2022-09-12T07:14:29;24.00;51.30
34249;DHT22;20508;50.834;3.160;2022-09-12T07:16:55;24.10;51.20
34249;DHT22;20508;50.834;3.160;2022-09-12T07:19:24;24.10;51.20
34249;DHT22;20508;50.834;3.160;2022-09-12T07:21:53;24.10;51.20
34249;DHT22;20508;50.834;3.160;2022-09-12T07:24:22;24.10;51.00
34249;DHT22;20508;50.834;3.160;2022-09-12T07:26:50;24.20;51.10
34249;DHT22;20508;50.834;3.160;2022-09-12T07:29:19;24.30;51.10
34249;DHT22;20508;50.834;3.160;2022-09-12T07:31:57;24.30;51.10
34249;DHT22;20508;50.834;3.160;2022-09-12T07:34:26;24.30;51.10
34249;DHT22;20508;50.834;3.160;2022-09-12T07:37:02;24.30;51.10
34249;DHT22;20508;50.834;3.160;2022-09-12T07:39:28;24.30;51.20
34249;DHT22;20508;50.834;3.160;2022-09-12T07:41:54;24.30;51.30
34249;DHT22;20508;50.834;3.160;2022-09-12T07:44:24;24.30;51.40
34249;DHT22;20508;50.834;3.160;2022-09-12T07:46:51;24.30;51.50
34249;DHT22;20508;50.834;3.160;2022-09-12T07:49:17;24.30;51.60
34249;DHT22;20508;50.834;3.160;2022-09-12T07:51:46;24.30;51.60
34249;DHT22;20508;50.834;3.160;2022-09-12T07:54:20;24.30;51.60
34249;DHT22;20508;50.834;3.160;2022-09-12T07:56:48;24.40;51.60
34249;DHT22;20508;50.834;3.160;2022-09-12T07:59:14;24.40;51.60
34249;DHT22;20508;50.834;3.160;2022-09-12T08:01:41;24.40;51.40
34249;DHT22;20508;50.834;3.160;2022-09-12T08:04:38;24.40;51.30
34249;DHT22;20508;50.834;3.160;2022-09-12T08:07:04;24.50;51.00
34249;DHT22;20508;50.834;3.160;2022-09-12T08:09:31;24.50;51.20
34249;DHT22;20508;50.834;3.160;2022-09-12T08:12:00;24.50;51.10
34249;DHT22;20508;50.834;3.160;2022-09-12T08:14:35;24.50;51.10
34249;DHT22;20508;50.834;3.160;2022-09-12T08:17:01;24.60;51.20
34249;DHT22;20508;50.834;3.160;2022-09-12T08:19:27;24.60;51.20
34249;DHT22;20508;50.834;3.160;2022-09-12T08:21:56;24.60;51.10
34249;DHT22;20508;50.834;3.160;2022-09-12T08:24:24;24.60;51.00
34249;DHT22;20508;50.834;3.160;2022-09-12T08:26:53;24.60;51.00
34249;DHT22;20508;50.834;3.160;2022-09-12T08:29:22;24.60;51.10
34249;DHT22;20508;50.834;3.160;2022-09-12T08:31:48;24.60;51.30
34249;DHT22;20508;50.834;3.160;2022-09-12T08:34:17;24.60;51.30
34249;DHT22;20508;50.834;3.160;2022-09-12T08:36:44;24.60;51.30
34249;DHT22;20508;50.834;3.160;2022-09-12T08:39:11;24.70;51.10
34249;DHT22;20508;50.834;3.160;2022-09-12T08:41:43;24.70;51.00
34249;DHT22;20508;50.834;3.160;2022-09-12T08:44:18;24.70;51.00
34249;DHT22;20508;50.834;3.160;2022-09-12T08:49:55;24.80;50.80
34249;DHT22;20508;50.834;3.160;2022-09-12T08:52:35;24.80;50.70
34249;DHT22;20508;50.834;3.160;2022-09-12T08:55:05;24.90;51.40
34249;DHT22;20508;50.834;3.160;2022-09-12T08:57:40;24.80;50.80
34249;DHT22;20508;50.834;3.160;2022-09-12T09:00:16;24.80;50.80
34249;DHT22;20508;50.834;3.160;2022-09-12T09:05:57;24.90;50.90
34249;DHT22;20508;50.834;3.160;2022-09-12T09:08:38;24.90;50.60
34249;DHT22;20508;50.834;3.160;2022-09-12T09:11:49;24.80;51.10
34249;DHT22;20508;50.834;3.160;2022-09-12T09:17:43;24.80;51.20
34249;DHT22;20508;50.834;3.160;2022-09-12T09:20:22;24.90;51.50
34249;DHT22;20508;50.834;3.160;2022-09-12T09:23:21;24.90;50.90
34249;DHT22;20508;50.834;3.160;2022-09-12T09:26:07;25.00;50.70
34249;DHT22;20508;50.834;3.160;2022-09-12T09:28:49;25.00;50.80
34249;DHT22;20508;50.834;3.160;2022-09-12T09:31:19;25.00;50.70
34249;DHT22;20508;50.834;3.160;2022-09-12T09:33:49;25.00;50.70
34249;DHT22;20508;50.834;3.160;2022-09-12T09:36:28;25.10;50.50
34249;DHT22;20508;50.834;3.160;2022-09-12T09:42:08;25.10;51.00
34249;DHT22;20508;50.834;3.160;2022-09-12T09:44:39;25.20;51.10
34249;DHT22;20508;50.834;3.160;2022-09-12T09:47:17;25.10;51.10
34249;DHT22;20508;50.834;3.160;2022-09-12T09:49:44;25.20;51.10
34249;DHT22;20508;50.834;3.160;2022-09-12T09:52:14;25.20;51.00
34249;DHT22;20508;50.834;3.160;2022-09-12T09:54:49;25.20;51.00
34249;DHT22;20508;50.834;3.160;2022-09-12T10:03:20;25.30;50.70
34249;DHT22;20508;50.834;3.160;2022-09-12T10:05:59;25.30;50.80
34249;DHT22;20508;50.834;3.160;2022-09-12T10:08:30;25.30;50.80
34249;DHT22;20508;50.834;3.160;2022-09-12T10:11:16;25.30;50.80
34249;DHT22;20508;50.834;3.160;2022-09-12T10:18:51;25.30;50.70
34249;DHT22;20508;50.834;3.160;2022-09-12T10:26:50;25.20;50.60
34249;DHT22;20508;50.834;3.160;2022-09-12T10:29:21;25.20;50.80
34249;DHT22;20508;50.834;3.160;2022-09-12T10:31:53;25.10;50.80
34249;DHT22;20508;50.834;3.160;2022-09-12T10:34:34;25.20;50.90
34249;DHT22;20508;50.834;3.160;2022-09-12T10:37:40;25.20;50.80
34249;DHT22;20508;50.834;3.160;2022-09-12T10:40:29;25.20;50.60
34249;DHT22;20508;50.834;3.160;2022-09-12T10:43:00;25.20;50.70
34249;DHT22;20508;50.834;3.160;2022-09-12T10:45:31;25.10;50.60
34249;DHT22;20508;50.834;3.160;2022-09-12T10:48:02;25.20;50.50
34249;DHT22;20508;50.834;3.160;2022-09-12T10:50:35;25.20;50.30
34249;DHT22;20508;50.834;3.160;2022-09-12T10:53:21;25.20;50.40
34249;DHT22;20508;50.834;3.160;2022-09-12T10:59:07;25.30;50.40
34249;DHT22;20508;50.834;3.160;2022-09-12T11:01:54;25.30;50.30
34249;DHT22;20508;50.834;3.160;2022-09-12T11:04:51;25.20;50.60
34249;DHT22;20508;50.834;3.160;2022-09-12T11:07:40;25.20;50.50
34249;DHT22;20508;50.834;3.160;2022-09-12T11:10:17;25.20;50.10
34249;DHT22;20508;50.834;3.160;2022-09-12T11:27:11;25.20;50.20
34249;DHT22;20508;50.834;3.160;2022-09-12T11:29:48;25.20;50.10
34249;DHT22;20508;50.834;3.160;2022-09-12T11:41:11;25.20;49.50
34249;DHT22;20508;50.834;3.160;2022-09-12T11:44:08;25.20;49.70
34249;DHT22;20508;50.834;3.160;2022-09-12T11:46:35;25.10;49.80
34249;DHT22;20508;50.834;3.160;2022-09-12T11:51:48;25.00;50.20
34249;DHT22;20508;50.834;3.160;2022-09-12T12:00:19;25.10;50.30
34249;DHT22;20508;50.834;3.160;2022-09-12T12:02:58;25.10;50.00
34249;DHT22;20508;50.834;3.160;2022-09-12T12:05:44;25.20;50.10
34249;DHT22;20508;50.834;3.160;2022-09-12T12:08:18;25.20;49.80
34249;DHT22;20508;50.834;3.160;2022-09-12T12:13:40;25.20;50.00
34249;DHT22;20508;50.834;3.160;2022-09-12T12:18:58;25.20;49.50
34249;DHT22;20508;50.834;3.160;2022-09-12T12:24:21;25.30;49.70
34249;DHT22;20508;50.834;3.160;2022-09-12T12:26:57;25.30;49.30
34249;DHT22;20508;50.834;3.160;2022-09-12T12:29:43;25.30;49.50
34249;DHT22;20508;50.834;3.160;2022-09-12T12:34:40;25.30;49.60
34249;DHT22;20508;50.834;3.160;2022-09-12T12:39:56;25.30;49.50
34249;DHT22;20508;50.834;3.160;2022-09-12T12:45:02;25.30;49.80
34249;DHT22;20508;50.834;3.160;2022-09-12T12:53:04;25.30;49.70
34249;DHT22;20508;50.834;3.160;2022-09-12T12:58:38;25.20;49.90
34249;DHT22;20508;50.834;3.160;2022-09-12T13:01:15;25.20;50.00
34249;DHT22;20508;50.834;3.160;2022-09-12T13:04:04;25.20;50.10
34249;DHT22;20508;50.834;3.160;2022-09-12T13:06:39;25.30;49.90
34249;DHT22;20508;50.834;3.160;2022-09-12T13:09:20;25.20;50.10
34249;DHT22;20508;50.834;3.160;2022-09-12T13:12:04;25.30;50.10
34249;DHT22;20508;50.834;3.160;2022-09-12T13:20:18;25.20;49.80
34249;DHT22;20508;50.834;3.160;2022-09-12T13:22:56;25.20;49.90
34249;DHT22;20508;50.834;3.160;2022-09-12T13:25:33;25.20;49.90
34249;DHT22;20508;50.834;3.160;2022-09-12T13:30:46;25.30;49.60
34249;DHT22;20508;50.834;3.160;2022-09-12T13:39:12;25.20;49.90
34249;DHT22;20508;50.834;3.160;2022-09-12T13:44:30;25.20;49.90
34249;DHT22;20508;50.834;3.160;2022-09-12T13:47:00;25.10;50.10
34249;DHT22;20508;50.834;3.160;2022-09-12T13:49:38;25.10;50.20
34249;DHT22;20508;50.834;3.160;2022-09-12T13:52:07;25.10;50.20
34249;DHT22;20508;50.834;3.160;2022-09-12T13:54:35;25.10;50.20
34249;DHT22;20508;50.834;3.160;2022-09-12T13:57:28;25.10;50.10
34249;DHT22;20508;50.834;3.160;2022-09-12T13:59:57;25.20;49.80
34249;DHT22;20508;50.834;3.160;2022-09-12T14:02:25;25.10;50.00
34249;DHT22;20508;50.834;3.160;2022-09-12T14:04:53;25.10;50.00
34249;DHT22;20508;50.834;3.160;2022-09-12T14:07:56;25.10;49.90
34249;DHT22;20508;50.834;3.160;2022-09-12T14:10:27;25.20;50.00
34249;DHT22;20508;50.834;3.160;2022-09-12T14:12:54;25.20;50.20
34249;DHT22;20508;50.834;3.160;2022-09-12T14:15:25;25.10;50.30
34249;DHT22;20508;50.834;3.160;2022-09-12T14:17:54;25.00;50.50
34249;DHT22;20508;50.834;3.160;2022-09-12T14:20:23;25.00;50.30
34249;DHT22;20508;50.834;3.160;2022-09-12T14:22:51;25.00;50.20
34249;DHT22;20508;50.834;3.160;2022-09-12T14:25:20;24.90;50.30
34249;DHT22;20508;50.834;3.160;2022-09-12T14:27:50;25.00;50.30
34249;DHT22;20508;50.834;3.160;2022-09-12T14:30:31;25.00;50.70
34249;DHT22;20508;50.834;3.160;2022-09-12T14:35:31;25.00;50.30
34249;DHT22;20508;50.834;3.160;2022-09-12T14:38:06;25.10;50.40
34249;DHT22;20508;50.834;3.160;2022-09-12T14:40:57;25.20;50.40
34249;DHT22;20508;50.834;3.160;2022-09-12T14:43:45;25.40;49.40
34249;DHT22;20508;50.834;3.160;2022-09-12T14:46:19;25.50;49.10
34249;DHT22;20508;50.834;3.160;2022-09-12T14:48:53;25.60;49.10
34249;DHT22;20508;50.834;3.160;2022-09-12T14:51:26;25.70;47.80
34249;DHT22;20508;50.834;3.160;2022-09-12T14:53:53;25.70;47.80
34249;DHT22;20508;50.834;3.160;2022-09-12T14:56:37;25.70;47.40
34249;DHT22;20508;50.834;3.160;2022-09-12T14:59:39;25.70;47.20
34249;DHT22;20508;50.834;3.160;2022-09-12T15:04:52;25.80;47.50
34249;DHT22;20508;50.834;3.160;2022-09-12T15:07:30;25.70;47.80
34249;DHT22;20508;50.834;3.160;2022-09-12T15:09:59;25.70;47.60
34249;DHT22;20508;50.834;3.160;2022-09-12T15:12:26;25.70;47.90
34249;DHT22;20508;50.834;3.160;2022-09-12T15:14:54;25.60;48.20
34249;DHT22;20508;50.834;3.160;2022-09-12T15:17:25;25.70;47.90
34249;DHT22;20508;50.834;3.160;2022-09-12T15:19:52;25.70;47.70
34249;DHT22;20508;50.834;3.160;2022-09-12T15:22:19;25.70;47.80
34249;DHT22;20508;50.834;3.160;2022-09-12T15:24:47;25.70;47.70
34249;DHT22;20508;50.834;3.160;2022-09-12T15:27:23;25.60;47.90
34249;DHT22;20508;50.834;3.160;2022-09-12T15:29:51;25.70;48.00
34249;DHT22;20508;50.834;3.160;2022-09-12T15:32:25;25.50;48.00
34249;DHT22;20508;50.834;3.160;2022-09-12T15:34:55;25.60;48.20
34249;DHT22;20508;50.834;3.160;2022-09-12T15:37:22;25.60;48.50
34249;DHT22;20508;50.834;3.160;2022-09-12T15:39:49;25.60;48.50
34249;DHT22;20508;50.834;3.160;2022-09-12T15:42:26;25.50;48.50
34249;DHT22;20508;50.834;3.160;2022-09-12T15:44:53;25.60;48.50
34249;DHT22;20508;50.834;3.160;2022-09-12T15:47:19;25.60;48.50
34249;DHT22;20508;50.834;3.160;2022-09-12T15:49:46;25.50;48.50
34249;DHT22;20508;50.834;3.160;2022-09-12T15:52:16;25.60;48.20
34249;DHT22;20508;50.834;3.160;2022-09-12T15:54:43;25.60;47.90
34249;DHT22;20508;50.834;3.160;2022-09-12T15:57:09;25.50;47.70
34249;DHT22;20508;50.834;3.160;2022-09-12T15:59:35;25.50;47.80
34249;DHT22;20508;50.834;3.160;2022-09-12T16:02:02;25.50;47.80
34249;DHT22;20508;50.834;3.160;2022-09-12T16:04:29;25.50;47.70
34249;DHT22;20508;50.834;3.160;2022-09-12T16:06:56;25.50;47.60
34249;DHT22;20508;50.834;3.160;2022-09-12T16:09:22;25.50;47.80
34249;DHT22;20508;50.834;3.160;2022-09-12T16:11:49;25.40;47.50
34249;DHT22;20508;50.834;3.160;2022-09-12T16:14:18;25.40;48.30
34249;DHT22;20508;50.834;3.160;2022-09-12T16:16:51;25.40;47.60
34249;DHT22;20508;50.834;3.160;2022-09-12T16:19:20;25.50;47.70
34249;DHT22;20508;50.834;3.160;2022-09-12T16:21:49;25.40;47.70
34249;DHT22;20508;50.834;3.160;2022-09-12T16:24:15;25.50;48.20
34249;DHT22;20508;50.834;3.160;2022-09-12T16:26:42;25.50;48.20
34249;DHT22;20508;50.834;3.160;2022-09-12T16:29:10;25.40;48.00
34249;DHT22;20508;50.834;3.160;2022-09-12T16:31:36;25.40;48.10
34249;DHT22;20508;50.834;3.160;2022-09-12T16:34:06;25.50;48.10
34249;DHT22;20508;50.834;3.160;2022-09-12T16:36:32;25.50;48.10
34249;DHT22;20508;50.834;3.160;2022-09-12T16:38:59;25.50;48.10
34249;DHT22;20508;50.834;3.160;2022-09-12T16:41:25;25.40;48.00
34249;DHT22;20508;50.834;3.160;2022-09-12T16:43:51;25.50;48.00
34249;DHT22;20508;50.834;3.160;2022-09-12T16:46:20;25.40;47.90
34249;DHT22;20508;50.834;3.160;2022-09-12T16:48:49;25.50;48.10
34249;DHT22;20508;50.834;3.160;2022-09-12T16:51:18;25.50;48.10
34249;DHT22;20508;50.834;3.160;2022-09-12T16:53:50;25.40;48.10
34249;DHT22;20508;50.834;3.160;2022-09-12T16:56:25;25.30;48.20
34249;DHT22;20508;50.834;3.160;2022-09-12T16:59:00;25.30;48.10
34249;DHT22;20508;50.834;3.160;2022-09-12T17:01:37;25.30;48.20
34249;DHT22;20508;50.834;3.160;2022-09-12T17:04:03;25.30;48.30
34249;DHT22;20508;50.834;3.160;2022-09-12T17:06:31;25.30;48.40
34249;DHT22;20508;50.834;3.160;2022-09-12T17:08:59;25.30;48.40
34249;DHT22;20508;50.834;3.160;2022-09-12T17:11:31;25.40;48.40
34249;DHT22;20508;50.834;3.160;2022-09-12T17:13:59;25.40;48.50
34249;DHT22;20508;50.834;3.160;2022-09-12T17:16:26;25.40;48.40
34249;DHT22;20508;50.834;3.160;2022-09-12T17:18:53;25.40;48.30
34249;DHT22;20508;50.834;3.160;2022-09-12T17:21:19;25.40;48.20
34249;DHT22;20508;50.834;3.160;2022-09-12T17:23:46;25.50;48.20
34249;DHT22;20508;50.834;3.160;2022-09-12T17:26:12;25.60;48.20
34249;DHT22;20508;50.834;3.160;2022-09-12T17:28:39;25.50;48.10
34249;DHT22;20508;50.834;3.160;2022-09-12T17:31:07;25.50;48.20
34249;DHT22;20508;50.834;3.160;2022-09-12T17:33:34;25.50;48.20
34249;DHT22;20508;50.834;3.160;2022-09-12T17:36:05;25.50;48.50
34249;DHT22;20508;50.834;3.160;2022-09-12T17:38:32;25.50;48.50
34249;DHT22;20508;50.834;3.160;2022-09-12T17:41:10;25.40;48.80
34249;DHT22;20508;50.834;3.160;2022-09-12T17:43:40;25.40;49.80
34249;DHT22;20508;50.834;3.160;2022-09-12T17:46:07;25.40;50.30
34249;DHT22;20508;50.834;3.160;2022-09-12T17:48:34;25.30;50.10
34249;DHT22;20508;50.834;3.160;2022-09-12T17:51:30;25.30;49.80
34249;DHT22;20508;50.834;3.160;2022-09-12T17:56:28;25.20;51.20
34249;DHT22;20508;50.834;3.160;2022-09-12T17:58:56;25.30;51.10
34249;DHT22;20508;50.834;3.160;2022-09-12T18:01:26;25.20;51.10
34249;DHT22;20508;50.834;3.160;2022-09-12T18:04:11;25.20;51.20
34249;DHT22;20508;50.834;3.160;2022-09-12T18:06:44;25.20;51.30
34249;DHT22;20508;50.834;3.160;2022-09-12T18:09:21;25.20;51.20
34249;DHT22;20508;50.834;3.160;2022-09-12T18:11:50;25.10;51.20
34249;DHT22;20508;50.834;3.160;2022-09-12T18:14:17;25.00;51.90
34249;DHT22;20508;50.834;3.160;2022-09-12T18:16:44;25.10;51.30
34249;DHT22;20508;50.834;3.160;2022-09-12T18:19:13;25.10;51.30
34249;DHT22;20508;50.834;3.160;2022-09-12T18:21:43;25.10;51.50
34249;DHT22;20508;50.834;3.160;2022-09-12T18:24:16;25.00;51.50
34249;DHT22;20508;50.834;3.160;2022-09-12T18:26:43;25.00;51.60
34249;DHT22;20508;50.834;3.160;2022-09-12T18:29:13;25.10;51.80
34249;DHT22;20508;50.834;3.160;2022-09-12T18:31:45;25.00;51.80
34249;DHT22;20508;50.834;3.160;2022-09-12T18:34:22;25.00;51.80
34249;DHT22;20508;50.834;3.160;2022-09-12T18:36:51;25.00;51.90
34249;DHT22;20508;50.834;3.160;2022-09-12T18:39:19;25.00;51.80
34249;DHT22;20508;50.834;3.160;2022-09-12T18:41:46;25.00;51.90
34249;DHT22;20508;50.834;3.160;2022-09-12T18:44:14;25.00;51.90
34249;DHT22;20508;50.834;3.160;2022-09-12T18:46:41;25.00;51.90